Terminal Aerodrome Forecast
Issued by NWS

Home | Current Version | Previous Version | Text Only | Print | Product List | Glossary On
Versions: 1 2 3 4 5 6 7 8 9 10 11 12 13 14
000
FTUS43 KABR 032000 AAA
TAFPIR
TAF AMD
KPIR 032012Z 0320/0418 32020KT P6SM SCT060 OVC070
     FM032100 32017G25KT P6SM BKN080
     FM040000 33009KT P6SM OVC080
     FM041100 31013G18KT P6SM OVC025=

USA.gov is the U.S. government's official web portal to all federal, state and local government web resources and services.